Terminal Aerodrome Forecast
Issued by NWS

Home | Current Version | Previous Version | Text Only | Print | Product List | Glossary On
Versions: 1 2 3 4 5 6 7 8 9 10 11 12 13
000
FTAK31 PAFA 241139
TAFAGA
TAF
PAGA 241139Z 2412/2512 VRB03KT P6SM OVC080
     FM241600 08006KT P6SM VCSH BKN060
     FM242200 06004KT P6SM -SHRA FEW035 BKN050=

USA.gov is the U.S. government's official web portal to all federal, state and local government web resources and services.